Time;durP1;ratioP1;P1;durP2;ratioP2;P2;SDS_P1;SDS_P2;PMS_P1;PMS_P2;Temp;Humidity;BMP_temperature;BMP_pressure;BME280_temperature;BME280_humidity;BME280_pressure;Samples;Min_cycle;Max_cycle;Signal;HPM_P1;HPM_P2
2021/12/18 00:01:37;;;;;;;0.30;0.20;;;;;;;6.51;100.00;102459.84;5012953;28;20456;-53
2021/12/18 00:04:04;;;;;;;1.43;1.33;;;;;;;6.52;100.00;102464.28;5019952;28;20456;-53
2021/12/18 00:06:31;;;;;;;0.30;0.20;;;;;;;6.34;100.00;102462.13;5022325;28;20479;-53
2021/12/18 00:08:58;;;;;;;0.20;0.20;;;;;;;6.18;100.00;102457.31;5023529;28;20444;-53
2021/12/18 00:11:26;;;;;;;0.30;0.20;;;;;;;6.13;100.00;102457.19;5012711;28;20459;-52
2021/12/18 00:13:53;;;;;;;0.30;0.20;;;;;;;6.00;100.00;102467.41;5019449;28;20515;-53
2021/12/18 00:16:20;;;;;;;0.30;0.20;;;;;;;5.96;100.00;102462.91;5018467;28;20897;-52
2021/12/18 00:18:50;;;;;;;0.20;0.20;;;;;;;5.87;100.00;102456.50;5012198;28;20449;-51
2021/12/18 00:21:18;;;;;;;0.30;0.20;;;;;;;5.63;100.00;102451.50;5009025;28;20459;-52
2021/12/18 00:23:45;;;;;;;0.30;0.20;;;;;;;5.65;100.00;102449.78;5016936;28;20480;-51
2021/12/18 00:26:12;;;;;;;0.30;0.20;;;;;;;5.33;100.00;102446.28;5023377;28;21001;-52
2021/12/18 00:28:39;;;;;;;1.27;1.27;;;;;;;5.19;100.00;102455.53;5025291;28;20498;-52
2021/12/18 00:31:05;;;;;;;0.30;0.10;;;;;;;5.09;100.00;102450.88;5015916;28;20452;-52
2021/12/18 00:33:32;;;;;;;0.30;0.20;;;;;;;5.13;100.00;102451.84;5028444;28;20944;-52
2021/12/18 00:35:59;;;;;;;0.30;0.10;;;;;;;5.02;100.00;102444.53;5011094;28;20537;-52
2021/12/18 00:38:29;;;;;;;0.30;0.20;;;;;;;4.94;100.00;102446.06;5026244;28;20456;-51
2021/12/18 00:41:13;;;;;;;0.30;0.20;;;;;;;4.95;100.00;102444.31;5016977;28;20524;-52
2021/12/18 00:44:03;;;;;;;0.30;0.20;;;;;;;5.01;100.00;102447.13;5021427;28;20452;-52
2021/12/18 00:46:31;;;;;;;0.30;0.20;;;;;;;4.87;100.00;102444.06;5016616;28;20515;-51
2021/12/18 00:48:58;;;;;;;0.30;0.20;;;;;;;4.78;100.00;102448.16;5020629;28;20457;-52
2021/12/18 00:51:24;;;;;;;0.30;0.20;;;;;;;4.51;100.00;102450.84;5017215;28;20453;-52
2021/12/18 00:53:51;;;;;;;0.30;0.20;;;;;;;4.53;100.00;102452.72;5017836;28;20452;-51
2021/12/18 00:56:19;;;;;;;0.20;0.10;;;;;;;4.29;100.00;102459.84;5025471;28;20472;-52
2021/12/18 00:58:47;;;;;;;0.30;0.20;;;;;;;4.27;100.00;102465.06;5013327;28;20448;-52
2021/12/18 01:01:14;;;;;;;0.30;0.20;;;;;;;4.29;100.00;102455.47;5014600;28;20802;-51
2021/12/18 01:03:42;;;;;;;1.00;0.90;;;;;;;3.91;100.00;102450.69;5022837;28;20511;-51
2021/12/18 01:06:09;;;;;;;0.30;0.20;;;;;;;4.04;100.00;102453.78;5013306;28;20861;-51
2021/12/18 01:08:36;;;;;;;0.30;0.20;;;;;;;4.05;100.00;102452.03;5022256;28;20519;-51
2021/12/18 01:13:46;;;;;;;0.20;0.20;;;;;;;3.88;100.00;102451.47;5009177;28;20948;-51
2021/12/18 01:16:19;;;;;;;0.30;0.20;;;;;;;3.86;100.00;102456.69;5014507;28;20882;-51
2021/12/18 01:24:17;;;;;;;0.20;0.10;;;;;;;3.90;100.00;102451.53;5024253;28;20476;-51
2021/12/18 01:26:43;;;;;;;0.20;0.10;;;;;;;3.85;100.00;102449.66;5020138;28;20461;-51
2021/12/18 01:29:10;;;;;;;0.20;0.10;;;;;;;3.55;100.00;102454.72;5012919;28;20457;-52
2021/12/18 01:31:37;;;;;;;0.30;0.20;;;;;;;3.50;100.00;102450.16;5024108;28;20956;-52
2021/12/18 01:34:03;;;;;;;0.20;0.10;;;;;;;3.46;100.00;102453.53;5012689;28;20492;-51
2021/12/18 01:36:30;;;;;;;0.20;0.10;;;;;;;3.40;100.00;102462.06;5022130;28;20538;-51
2021/12/18 01:38:57;;;;;;;0.20;0.10;;;;;;;3.34;100.00;102466.22;5018451;28;20460;-50
2021/12/18 01:41:24;;;;;;;0.43;0.43;;;;;;;3.50;100.00;102460.69;5025845;28;20459;-51
2021/12/18 01:54:12;;;;;;;0.20;0.10;;;;;;;3.33;100.00;102467.97;5023429;28;20455;-51
2021/12/18 01:56:39;;;;;;;0.20;0.10;;;;;;;2.97;100.00;102462.25;5020033;28;20452;-50
2021/12/18 01:59:06;;;;;;;0.20;0.20;;;;;;;3.21;100.00;102473.66;5027111;28;20521;-51
2021/12/18 02:01:32;;;;;;;0.20;0.10;;;;;;;2.82;100.00;102469.53;5016633;28;20456;-50
2021/12/18 02:03:59;;;;;;;0.30;0.20;;;;;;;3.08;100.00;102468.78;5011544;28;20452;-50
2021/12/18 02:06:26;;;;;;;0.20;0.10;;;;;;;3.14;100.00;102465.50;5016637;28;20477;-50
2021/12/18 02:08:53;;;;;;;0.20;0.10;;;;;;;3.06;100.00;102470.47;5035644;28;20454;-51
2021/12/18 02:22:11;;;;;;;0.20;0.10;;;;;;;3.20;100.00;102478.88;5011714;28;20483;-50
2021/12/18 02:24:38;;;;;;;0.20;0.10;;;;;;;2.95;100.00;102461.28;5025442;28;20527;-50
2021/12/18 02:27:04;;;;;;;0.20;0.10;;;;;;;3.20;100.00;102473.63;5026549;28;20459;-50
2021/12/18 02:29:33;;;;;;;0.20;0.20;;;;;;;2.94;100.00;102484.03;5023865;28;20453;-50
2021/12/18 02:32:00;;;;;;;0.20;0.13;;;;;;;2.72;100.00;102478.78;5026266;28;20452;-51
2021/12/18 02:34:30;;;;;;;0.20;0.10;;;;;;;3.00;100.00;102474.59;5023224;28;20857;-50
2021/12/18 02:37:06;;;;;;;0.20;0.20;;;;;;;3.04;100.00;102474.78;5020855;28;20507;-50
2021/12/18 02:44:36;;;;;;;0.20;0.10;;;;;;;3.15;100.00;102476.09;5023948;28;20999;-51
2021/12/18 02:47:03;;;;;;;0.20;0.10;;;;;;;3.10;100.00;102474.09;5014695;28;20452;-50
2021/12/18 02:49:30;;;;;;;0.30;0.10;;;;;;;3.16;100.00;102469.09;5016544;28;20449;-51
2021/12/18 02:51:56;;;;;;;0.20;0.10;;;;;;;3.35;100.00;102470.66;5019504;28;20491;-50
2021/12/18 02:54:23;;;;;;;0.20;0.10;;;;;;;3.41;100.00;102468.22;5020672;28;20461;-51
2021/12/18 02:56:50;;;;;;;0.20;0.10;;;;;;;3.40;100.00;102469.97;5026252;28;20522;-50
2021/12/18 02:59:17;;;;;;;0.20;0.20;;;;;;;3.32;100.00;102473.16;5027912;28;20455;-50
2021/12/18 03:01:43;;;;;;;0.20;0.20;;;;;;;2.93;100.00;102468.22;5016509;28;20519;-51
2021/12/18 03:04:27;;;;;;;0.20;0.10;;;;;;;3.06;100.00;102461.69;5029073;28;20464;-50
2021/12/18 03:06:59;;;;;;;0.20;0.10;;;;;;;3.09;100.00;102459.19;5017099;28;20544;-50
2021/12/18 03:18:59;;;;;;;0.20;0.10;;;;;;;2.96;100.00;102461.34;5019329;28;20456;-50
2021/12/18 03:23:27;;;;;;;0.20;0.10;;;;;;;2.76;100.00;102464.06;5015373;28;20483;-50
2021/12/18 03:25:58;;;;;;;0.20;0.10;;;;;;;2.93;100.00;102476.09;5015444;28;20472;-51
2021/12/18 03:28:26;;;;;;;0.20;0.13;;;;;;;2.70;100.00;102471.69;5019528;28;20457;-51
2021/12/18 03:30:55;;;;;;;0.20;0.10;;;;;;;2.64;100.00;102475.00;5017268;28;20863;-50
2021/12/18 03:33:23;;;;;;;0.20;0.10;;;;;;;2.56;100.00;102474.69;5026421;28;20452;-51
2021/12/18 03:35:50;;;;;;;0.20;0.20;;;;;;;2.52;100.00;102477.13;5015478;28;20481;-51
2021/12/18 03:38:17;;;;;;;0.20;0.10;;;;;;;2.46;100.00;102471.63;5027546;28;20472;-51
2021/12/18 03:40:44;;;;;;;0.20;0.20;;;;;;;2.59;100.00;102473.91;5014572;28;20551;-50
2021/12/18 03:43:10;;;;;;;0.20;0.10;;;;;;;2.68;100.00;102466.38;5015147;28;20514;-50
2021/12/18 03:45:37;;;;;;;0.20;0.10;;;;;;;2.75;100.00;102472.78;5019185;28;20473;-50
2021/12/18 03:48:04;;;;;;;0.20;0.10;;;;;;;2.66;100.00;102471.59;5023440;28;20456;-50
2021/12/18 03:50:31;;;;;;;0.30;0.20;;;;;;;2.52;100.00;102475.41;5019197;28;20551;-50
2021/12/18 03:52:57;;;;;;;0.20;0.10;;;;;;;2.22;100.00;102471.56;5016755;28;20503;-51
2021/12/18 03:55:26;;;;;;;0.20;0.10;;;;;;;2.38;100.00;102473.97;5016620;28;20972;-50
2021/12/18 03:57:53;;;;;;;0.20;0.17;;;;;;;2.52;100.00;102480.66;5017964;28;20858;-50
2021/12/18 04:00:20;;;;;;;0.20;0.20;;;;;;;2.77;100.00;102474.63;5025862;28;20484;-51
2021/12/18 04:02:47;;;;;;;0.20;0.10;;;;;;;2.63;100.00;102479.34;5028294;28;20502;-51
2021/12/18 04:05:14;;;;;;;0.20;0.10;;;;;;;2.71;100.00;102479.63;5015952;28;21001;-51
2021/12/18 04:07:46;;;;;;;0.20;0.10;;;;;;;2.78;100.00;102486.94;5016756;28;20452;-50
2021/12/18 04:10:15;;;;;;;0.20;0.10;;;;;;;2.95;100.00;102477.06;5030214;28;20817;-51
2021/12/18 04:12:42;;;;;;;0.20;0.10;;;;;;;2.95;100.00;102475.31;5015652;28;20456;-50
2021/12/18 04:15:09;;;;;;;0.20;0.10;;;;;;;3.03;100.00;102478.25;5020944;28;20475;-50
2021/12/18 04:17:36;;;;;;;0.20;0.10;;;;;;;3.05;100.00;102475.69;5020013;28;20452;-51
2021/12/18 04:20:03;;;;;;;0.20;0.20;;;;;;;3.08;100.00;102481.94;5021479;28;20614;-51
2021/12/18 04:22:30;;;;;;;0.20;0.10;;;;;;;3.13;100.00;102472.47;5012805;28;20506;-51
2021/12/18 04:24:57;;;;;;;0.20;0.10;;;;;;;3.10;100.00;102479.34;5020925;28;20526;-51
2021/12/18 04:27:23;;;;;;;0.20;0.10;;;;;;;3.19;100.00;102474.44;5019955;28;20530;-50
2021/12/18 04:29:50;;;;;;;0.20;0.10;;;;;;;3.24;100.00;102483.38;5016470;28;20449;-51
2021/12/18 04:32:16;;;;;;;0.20;0.10;;;;;;;3.23;100.00;102482.50;5014011;28;20488;-50
2021/12/18 04:34:43;;;;;;;0.20;0.10;;;;;;;3.44;100.00;102476.25;5026074;28;20487;-51
2021/12/18 04:37:10;;;;;;;0.20;0.10;;;;;;;3.47;100.00;102476.34;5022896;28;20519;-51
2021/12/18 04:39:36;;;;;;;0.20;0.10;;;;;;;3.54;100.00;102483.59;5021423;28;20507;-51
2021/12/18 04:42:03;;;;;;;0.20;0.20;;;;;;;3.56;100.00;102479.28;5023697;28;20492;-50
2021/12/18 04:44:30;;;;;;;0.20;0.10;;;;;;;3.74;100.00;102477.31;5020631;28;20498;-51
2021/12/18 04:46:56;;;;;;;0.20;0.10;;;;;;;3.67;100.00;102472.66;5014416;28;20457;-50
2021/12/18 04:49:23;;;;;;;0.20;0.10;;;;;;;3.63;100.00;102478.66;5028716;28;20478;-51
2021/12/18 04:51:50;;;;;;;0.20;0.10;;;;;;;3.50;100.00;102479.06;5021264;28;20441;-51
2021/12/18 04:54:16;;;;;;;0.20;0.10;;;;;;;3.85;100.00;102475.06;5022074;28;20456;-50
2021/12/18 04:56:43;;;;;;;0.90;0.90;;;;;;;3.88;100.00;102474.25;5014941;28;20448;-51
2021/12/18 04:59:10;;;;;;;0.20;0.10;;;;;;;3.90;100.00;102480.47;5024318;28;20478;-51
2021/12/18 05:01:39;;;;;;;0.20;0.10;;;;;;;3.93;100.00;102478.81;5017356;28;20489;-51
2021/12/18 05:04:10;;;;;;;0.20;0.10;;;;;;;3.98;100.00;102484.25;5014167;28;20511;-52
2021/12/18 05:06:41;;;;;;;0.20;0.10;;;;;;;3.94;100.00;102485.88;5024233;28;20855;-52
2021/12/18 05:09:07;;;;;;;0.20;0.13;;;;;;;4.13;100.00;102484.78;5017593;28;20502;-52
2021/12/18 05:11:38;;;;;;;0.40;0.40;;;;;;;4.16;100.00;102492.75;5014929;28;20456;-52
2021/12/18 05:14:04;;;;;;;0.30;0.20;;;;;;;4.36;100.00;102482.88;5017054;28;20868;-52
2021/12/18 05:16:31;;;;;;;0.20;0.10;;;;;;;4.34;100.00;102476.66;5021355;28;21013;-52
2021/12/18 05:18:58;;;;;;;0.20;0.10;;;;;;;4.32;100.00;102491.53;5023108;28;20499;-52
2021/12/18 05:21:25;;;;;;;0.20;0.20;;;;;;;4.35;100.00;102487.25;5011863;28;21048;-52
2021/12/18 05:23:51;;;;;;;0.20;0.20;;;;;;;4.39;100.00;102483.88;5021924;28;20452;-52
2021/12/18 05:26:19;;;;;;;0.20;0.10;;;;;;;4.39;100.00;102483.00;5020955;28;20475;-52
2021/12/18 05:28:46;;;;;;;0.80;0.80;;;;;;;4.42;100.00;102485.72;5018681;28;20459;-52
2021/12/18 05:31:16;;;;;;;0.20;0.10;;;;;;;4.49;100.00;102481.50;5026402;28;20452;-52
2021/12/18 05:33:46;;;;;;;0.20;0.13;;;;;;;4.62;100.00;102484.59;5015923;28;20464;-52
2021/12/18 05:39:04;;;;;;;0.20;0.17;;;;;;;4.67;100.00;102471.56;5005653;28;20455;-52
2021/12/18 05:41:31;;;;;;;0.30;0.10;;;;;;;4.89;100.00;102466.09;5017768;28;20488;-51
2021/12/18 05:43:57;;;;;;;0.20;0.13;;;;;;;5.11;100.00;102469.38;5027252;28;20456;-52
2021/12/18 05:46:25;;;;;;;0.20;0.10;;;;;;;4.87;100.00;102469.53;5016978;28;20476;-52
2021/12/18 05:48:52;;;;;;;0.20;0.10;;;;;;;4.81;100.00;102474.63;5023122;28;20518;-52
2021/12/18 05:51:21;;;;;;;0.20;0.10;;;;;;;4.70;100.00;102480.47;5025284;28;20960;-52
2021/12/18 05:53:48;;;;;;;0.20;0.20;;;;;;;4.65;100.00;102483.78;5012906;28;20457;-52
2021/12/18 05:56:15;;;;;;;0.63;0.63;;;;;;;4.64;100.00;102474.97;5022546;28;20514;-52
2021/12/18 05:58:43;;;;;;;0.20;0.17;;;;;;;4.65;100.00;102482.03;5013344;28;20966;-52
2021/12/18 06:01:12;;;;;;;0.20;0.20;;;;;;;4.55;100.00;102487.00;5016431;28;20538;-52
2021/12/18 06:03:40;;;;;;;0.20;0.20;;;;;;;4.56;100.00;102491.41;5019898;28;21032;-51
2021/12/18 06:06:07;;;;;;;0.20;0.20;;;;;;;4.71;100.00;102487.50;5021372;28;20503;-51
2021/12/18 06:08:35;;;;;;;0.20;0.10;;;;;;;4.59;100.00;102496.78;5018842;28;20519;-52
2021/12/18 06:11:15;;;;;;;0.20;0.17;;;;;;;4.59;100.00;102496.78;5016102;28;20449;-52
2021/12/18 06:13:44;;;;;;;0.20;0.10;;;;;;;4.68;100.00;102494.44;5020814;28;20451;-51
2021/12/18 06:16:12;;;;;;;0.20;0.10;;;;;;;4.75;100.00;102488.50;5017169;28;20486;-52
2021/12/18 06:18:41;;;;;;;0.20;0.10;;;;;;;4.58;100.00;102490.63;5022329;28;20455;-52
2021/12/18 06:21:09;;;;;;;0.20;0.10;;;;;;;4.64;100.00;102482.00;5009420;28;20909;-51
2021/12/18 06:23:36;;;;;;;0.20;0.20;;;;;;;4.71;100.00;102484.88;5009501;28;20467;-52
2021/12/18 06:26:03;;;;;;;0.30;0.20;;;;;;;4.68;100.00;102490.06;5015796;28;20476;-52
2021/12/18 06:28:29;;;;;;;0.20;0.10;;;;;;;4.68;100.00;102490.06;5016127;28;20452;-52
2021/12/18 06:30:56;;;;;;;0.20;0.13;;;;;;;4.69;100.00;102494.47;5023403;28;20449;-51
2021/12/18 06:33:23;;;;;;;0.20;0.20;;;;;;;4.69;100.00;102488.31;5015458;28;20452;-52
2021/12/18 06:35:49;;;;;;;0.67;0.67;;;;;;;4.78;100.00;102492.94;5015193;28;20981;-52
2021/12/18 06:38:16;;;;;;;0.20;0.20;;;;;;;4.72;100.00;102485.78;5014884;28;21016;-52
2021/12/18 06:40:43;;;;;;;0.70;0.70;;;;;;;4.77;100.00;102484.16;5015454;28;20535;-51
2021/12/18 06:43:09;;;;;;;0.20;0.10;;;;;;;4.80;100.00;102486.00;5015094;28;20945;-52
2021/12/18 06:45:36;;;;;;;0.30;0.20;;;;;;;4.78;100.00;102478.03;5014895;28;20472;-52
2021/12/18 06:48:03;;;;;;;0.20;0.20;;;;;;;4.99;100.00;102478.69;5015024;28;20464;-52
2021/12/18 06:50:30;;;;;;;0.20;0.10;;;;;;;4.87;100.00;102474.81;5013998;28;20484;-51
2021/12/18 06:52:56;;;;;;;0.20;0.20;;;;;;;4.88;100.00;102477.47;5022733;28;20476;-51
2021/12/18 06:55:24;;;;;;;0.20;0.20;;;;;;;4.83;100.00;102479.09;5015545;28;20472;-52
2021/12/18 06:57:51;;;;;;;0.20;0.10;;;;;;;4.84;100.00;102477.34;5019519;28;20457;-51
2021/12/18 07:00:20;;;;;;;0.83;0.83;;;;;;;4.85;100.00;102477.41;5015007;28;20506;-52
2021/12/18 07:02:47;;;;;;;0.20;0.20;;;;;;;4.75;100.00;102485.84;5013254;28;20508;-51
2021/12/18 07:05:14;;;;;;;0.50;0.50;;;;;;;4.85;100.00;102481.78;5014520;28;20483;-52
2021/12/18 07:07:42;;;;;;;0.20;0.10;;;;;;;4.85;100.00;102477.41;5014797;28;20463;-52
2021/12/18 07:10:13;;;;;;;0.20;0.10;;;;;;;4.95;100.00;102479.47;5013670;28;20457;-52
2021/12/18 07:12:40;;;;;;;0.20;0.10;;;;;;;4.98;100.00;102476.91;5014023;28;20502;-51
2021/12/18 07:15:09;;;;;;;1.23;0.60;;;;;;;4.95;100.00;102481.22;5018577;28;20511;-52
2021/12/18 07:17:36;;;;;;;0.20;0.20;;;;;;;5.04;100.00;102484.09;5014436;28;20479;-52
2021/12/18 07:20:05;;;;;;;0.57;0.57;;;;;;;5.04;100.00;102479.72;5024814;28;20459;-51
2021/12/18 07:22:32;;;;;;;0.20;0.10;;;;;;;5.06;100.00;102483.28;5016123;28;20492;-52
2021/12/18 07:24:58;;;;;;;0.20;0.17;;;;;;;4.91;100.00;102484.56;5014522;28;20519;-52
2021/12/18 07:27:25;;;;;;;0.20;0.10;;;;;;;5.05;100.00;102481.50;5014476;28;20934;-52
2021/12/18 07:29:52;;;;;;;0.20;0.20;;;;;;;5.22;100.00;102483.75;5014637;28;20519;-52
2021/12/18 07:32:19;;;;;;;0.30;0.20;;;;;;;5.12;100.00;102487.84;5013729;28;20457;-52
2021/12/18 07:34:52;;;;;;;0.20;0.10;;;;;;;5.09;100.00;102490.41;5010656;28;20491;-52
2021/12/18 07:37:20;;;;;;;0.40;0.40;;;;;;;5.11;100.00;102490.44;5014947;28;20492;-52
2021/12/18 07:39:46;;;;;;;0.20;0.10;;;;;;;5.21;100.00;102487.25;5014044;28;20495;-52
2021/12/18 07:42:13;;;;;;;0.20;0.10;;;;;;;5.18;100.00;102490.66;5009310;28;20488;-51
2021/12/18 07:44:41;;;;;;;1.83;1.17;;;;;;;5.13;100.00;102486.13;5013266;28;20472;-52
2021/12/18 07:47:08;;;;;;;0.20;0.17;;;;;;;5.16;100.00;102495.00;5014048;28;20457;-52
2021/12/18 07:49:38;;;;;;;0.30;0.30;;;;;;;5.19;100.00;102491.56;5019079;28;20447;-51
2021/12/18 07:52:06;;;;;;;0.20;0.10;;;;;;;5.21;100.00;102492.53;5014555;28;20456;-52
2021/12/18 07:54:33;;;;;;;1.33;1.23;;;;;;;5.47;100.00;102494.13;5013582;28;20546;-52
2021/12/18 07:57:00;;;;;;;1.27;0.80;;;;;;;5.76;100.00;102494.06;5013321;28;20452;-52
2021/12/18 07:59:27;;;;;;;2.00;1.33;;;;;;;5.49;100.00;102505.63;5018010;28;20452;-52
2021/12/18 08:01:53;;;;;;;0.20;0.17;;;;;;;5.24;100.00;102503.16;5013144;28;20484;-51
2021/12/18 08:04:20;;;;;;;1.20;0.80;;;;;;;5.46;100.00;102509.91;5017578;28;20523;-52
2021/12/18 08:06:47;;;;;;;0.20;0.10;;;;;;;5.41;100.00;102506.25;5013171;28;20460;-52
2021/12/18 08:09:14;;;;;;;0.20;0.17;;;;;;;5.53;100.00;102512.78;5013277;28;20461;-52
2021/12/18 08:11:40;;;;;;;0.20;0.10;;;;;;;5.58;100.00;102508.50;5013072;28;20511;-52
2021/12/18 08:14:08;;;;;;;0.20;0.10;;;;;;;5.71;100.00;102508.84;5012254;28;20453;-52
2021/12/18 08:16:34;;;;;;;0.30;0.20;;;;;;;5.48;100.00;102513.47;5020903;28;20476;-52
2021/12/18 08:19:01;;;;;;;0.20;0.10;;;;;;;5.41;100.00;102509.78;5013588;28;20845;-52
2021/12/18 08:21:27;;;;;;;0.40;0.40;;;;;;;5.28;100.00;102513.81;5013310;28;20484;-52
2021/12/18 08:23:54;;;;;;;0.20;0.17;;;;;;;5.48;100.00;102513.47;5013017;28;20457;-52
2021/12/18 08:26:21;;;;;;;0.20;0.20;;;;;;;5.36;100.00;102514.03;5018492;28;20839;-52
2021/12/18 08:28:48;;;;;;;0.43;0.43;;;;;;;5.65;100.00;102515.75;5017236;28;20471;-52
2021/12/18 08:31:15;;;;;;;0.20;0.10;;;;;;;5.53;100.00;102522.44;5012864;28;20479;-53
2021/12/18 08:33:41;;;;;;;0.20;0.10;;;;;;;5.79;100.00;102517.88;5012670;28;20503;-52
2021/12/18 08:36:08;;;;;;;0.20;0.10;;;;;;;5.44;100.00;102520.41;5012477;28;20484;-52
2021/12/18 08:38:35;;;;;;;0.63;0.60;;;;;;;5.45;100.00;102513.41;5013002;28;20953;-52
2021/12/18 08:41:02;;;;;;;0.20;0.17;;;;;;;5.82;100.00;102507.38;5011696;28;20938;-52
2021/12/18 08:43:29;;;;;;;0.20;0.10;;;;;;;5.88;100.00;102516.34;5012523;28;20500;-52
2021/12/18 08:45:55;;;;;;;0.20;0.10;;;;;;;5.78;100.00;102521.38;5022800;28;21018;-52
2021/12/18 08:48:22;;;;;;;0.20;0.20;;;;;;;5.83;100.00;102512.69;5024613;28;20453;-52
2021/12/18 08:50:48;;;;;;;0.20;0.20;;;;;;;5.76;100.00;102501.97;5012810;28;20945;-52
2021/12/18 08:53:15;;;;;;;0.20;0.10;;;;;;;5.74;100.00;102522.09;5012621;28;20453;-53
2021/12/18 08:55:42;;;;;;;0.30;0.30;;;;;;;5.64;100.00;102521.88;5012423;28;20468;-52
2021/12/18 08:58:10;;;;;;;0.20;0.20;;;;;;;5.79;100.00;102515.22;5012654;28;20457;-53
2021/12/18 09:00:37;;;;;;;0.20;0.10;;;;;;;5.82;100.00;102515.31;5012787;28;20448;-52
2021/12/18 09:03:04;;;;;;;3.37;3.20;;;;;;;5.82;100.00;102517.94;5012696;28;20563;-52
2021/12/18 09:05:31;;;;;;;0.20;0.10;;;;;;;5.74;100.00;102512.44;5012559;28;20479;-52
2021/12/18 09:07:58;;;;;;;0.20;0.20;;;;;;;5.79;100.00;102509.94;5012420;28;20448;-52
2021/12/18 09:10:25;;;;;;;0.20;0.10;;;;;;;5.69;100.00;102506.16;5011364;28;20449;-52
2021/12/18 09:12:53;;;;;;;0.20;0.20;;;;;;;5.69;100.00;102508.81;5012415;28;21001;-52
2021/12/18 09:15:20;;;;;;;0.20;0.20;;;;;;;5.60;100.00;102504.16;5012602;28;20472;-52
2021/12/18 09:17:48;;;;;;;0.20;0.10;;;;;;;5.65;100.00;102504.31;5012488;28;20460;-52
2021/12/18 09:20:15;;;;;;;0.20;0.10;;;;;;;5.40;100.00;102505.38;5012719;28;20536;-52
2021/12/18 09:22:42;;;;;;;0.20;0.13;;;;;;;5.68;100.00;102500.84;5012573;28;20917;-52
2021/12/18 09:25:10;;;;;;;0.20;0.10;;;;;;;5.62;100.00;102505.13;5012626;28;20508;-52
2021/12/18 09:27:37;;;;;;;0.20;0.10;;;;;;;5.44;100.00;102504.59;5012465;28;20456;-52
2021/12/18 09:30:07;;;;;;;1.23;1.23;;;;;;;5.49;100.00;102513.53;5023658;28;20519;-52
2021/12/18 09:32:33;;;;;;;0.30;0.20;;;;;;;5.67;100.00;102509.63;5013011;28;20499;-52
2021/12/18 09:35:00;;;;;;;0.20;0.20;;;;;;;5.58;100.00;102516.41;5013001;28;21063;-52
2021/12/18 09:37:27;;;;;;;0.20;0.10;;;;;;;5.59;100.00;102520.84;5012249;28;20519;-52
2021/12/18 09:39:53;;;;;;;0.20;0.20;;;;;;;5.68;100.00;102508.75;5012688;28;20503;-52
2021/12/18 09:42:21;;;;;;;2.00;2.00;;;;;;;5.59;100.00;102517.31;5012390;28;20488;-52
2021/12/18 09:44:49;;;;;;;0.30;0.10;;;;;;;5.65;100.00;102509.59;5012307;28;20476;-52
2021/12/18 09:47:18;;;;;;;0.20;0.20;;;;;;;5.76;100.00;102510.78;5012350;28;20452;-52
2021/12/18 09:49:45;;;;;;;0.20;0.20;;;;;;;5.64;100.00;102508.69;5012153;28;20456;-52
2021/12/18 09:52:12;;;;;;;0.20;0.10;;;;;;;5.48;100.00;102505.56;5012514;28;20491;-52
2021/12/18 09:54:39;;;;;;;0.20;0.20;;;;;;;5.59;100.00;102505.00;5012254;28;20472;-52
2021/12/18 09:57:06;;;;;;;0.20;0.10;;;;;;;5.90;100.00;102500.63;5014560;28;20483;-52
2021/12/18 09:59:32;;;;;;;0.20;0.20;;;;;;;5.54;100.00;102497.84;5016169;28;20476;-52
2021/12/18 10:01:59;;;;;;;0.20;0.20;;;;;;;5.47;100.00;102488.84;5016029;28;21322;-52
2021/12/18 10:04:27;;;;;;;0.20;0.10;;;;;;;5.55;100.00;102489.97;5015904;28;20499;-52
2021/12/18 10:06:56;;;;;;;0.20;0.20;;;;;;;5.91;100.00;102494.47;5015151;28;20523;-52
2021/12/18 10:09:23;;;;;;;0.20;0.10;;;;;;;5.72;100.00;102493.03;5015956;28;20479;-52
2021/12/18 10:11:59;;;;;;;0.20;0.10;;;;;;;5.59;100.00;102485.66;5016207;28;20448;-52
2021/12/18 10:14:36;;;;;;;0.20;0.10;;;;;;;5.60;100.00;102482.16;5015941;28;20448;-52
2021/12/18 10:17:17;;;;;;;0.20;0.13;;;;;;;5.58;100.00;102484.75;5016144;28;20946;-52
2021/12/18 10:19:43;;;;;;;0.20;0.10;;;;;;;5.55;100.00;102487.31;5016734;28;20497;-53
2021/12/18 10:22:13;;;;;;;0.20;0.20;;;;;;;5.53;100.00;102489.03;5016088;28;20514;-52
2021/12/18 10:24:42;;;;;;;0.20;0.10;;;;;;;5.76;100.00;102484.38;5016039;28;20845;-52
2021/12/18 10:27:20;;;;;;;1.33;1.33;;;;;;;5.68;100.00;102475.34;5015391;28;21007;-52
2021/12/18 10:29:49;;;;;;;0.20;0.20;;;;;;;5.54;100.00;102477.63;5026271;28;20896;-52
2021/12/18 10:32:19;;;;;;;0.20;0.10;;;;;;;5.68;100.00;102474.47;5015817;28;20871;-52
2021/12/18 10:34:54;;;;;;;0.20;0.20;;;;;;;5.71;100.00;102472.78;5015504;28;20486;-52
2021/12/18 10:37:27;;;;;;;0.20;0.13;;;;;;;5.53;100.00;102467.03;5003013;28;20464;-52
2021/12/18 10:39:53;;;;;;;0.20;0.10;;;;;;;5.52;100.00;102468.78;5015669;28;20448;-52
2021/12/18 10:42:39;;;;;;;0.30;0.20;;;;;;;5.67;100.00;102460.38;5015844;28;20558;-52
2021/12/18 10:45:20;;;;;;;0.20;0.13;;;;;;;5.64;100.00;102448.00;5015334;28;20507;-52
2021/12/18 10:48:02;;;;;;;0.67;0.67;;;;;;;5.32;100.00;102451.50;5015485;28;20475;-52
2021/12/18 10:50:45;;;;;;;0.20;0.20;;;;;;;5.11;100.00;102443.00;5003371;28;20453;-52
2021/12/18 10:53:18;;;;;;;0.20;0.13;;;;;;;5.16;100.00;102441.38;5015578;28;20480;-52
2021/12/18 10:55:47;;;;;;;0.20;0.10;;;;;;;5.30;100.00;102440.03;5015580;28;20472;-52
2021/12/18 10:58:36;;;;;;;0.20;0.20;;;;;;;5.38;100.00;102437.63;5015281;28;20483;-52
2021/12/18 11:01:11;;;;;;;0.20;0.10;;;;;;;5.45;100.00;102436.91;5015430;28;20455;-52
2021/12/18 11:03:47;;;;;;;0.20;0.10;;;;;;;5.29;100.00;102431.22;5015300;28;20518;-52
2021/12/18 11:06:31;;;;;;;0.30;0.20;;;;;;;5.64;100.00;102440.09;5014995;28;20468;-52
2021/12/18 11:09:09;;;;;;;0.20;0.20;;;;;;;5.57;100.00;102443.41;5013927;28;20449;-52
2021/12/18 11:14:18;;;;;;;0.20;0.10;;;;;;;5.37;100.00;102436.72;5015177;28;20447;-52
2021/12/18 11:16:56;;;;;;;0.20;0.10;;;;;;;5.22;100.00;102424.00;5015599;28;20445;-52
2021/12/18 11:19:26;;;;;;;0.20;0.10;;;;;;;5.27;100.00;102426.75;5015318;28;20909;-52
2021/12/18 11:22:00;;;;;;;0.30;0.20;;;;;;;5.23;100.00;102428.44;5016843;28;20482;-53
2021/12/18 11:24:41;;;;;;;0.20;0.10;;;;;;;5.18;100.00;102418.59;5014064;28;20507;-52
2021/12/18 11:27:20;;;;;;;0.20;0.20;;;;;;;5.32;100.00;102417.22;5015044;28;20479;-52
2021/12/18 11:29:58;;;;;;;0.20;0.20;;;;;;;5.56;100.00;102415.25;5025530;28;20440;-52
2021/12/18 11:32:30;;;;;;;0.20;0.10;;;;;;;5.67;100.00;102410.25;5014824;28;20441;-52
2021/12/18 11:35:03;;;;;;;0.20;0.20;;;;;;;5.65;100.00;102410.22;5014541;28;20554;-52
2021/12/18 11:37:43;;;;;;;0.20;0.10;;;;;;;5.63;100.00;102405.75;5014455;28;20460;-52
2021/12/18 11:40:14;;;;;;;0.20;0.20;;;;;;;5.62;100.00;102399.59;5014641;28;20444;-52
2021/12/18 11:42:42;;;;;;;0.40;0.40;;;;;;;5.75;100.00;102399.88;5014898;28;20492;-52
2021/12/18 11:45:10;;;;;;;0.20;0.10;;;;;;;5.79;100.00;102391.22;5014155;28;20507;-52
2021/12/18 11:48:00;;;;;;;0.20;0.10;;;;;;;5.69;100.00;102387.44;5014263;28;20518;-52
2021/12/18 11:50:31;;;;;;;2.90;1.50;;;;;;;5.87;100.00;102385.25;5014316;28;20480;-52
2021/12/18 11:53:09;;;;;;;0.20;0.20;;;;;;;5.94;100.00;102387.22;5014264;28;20444;-52
2021/12/18 11:55:35;;;;;;;0.20;0.10;;;;;;;5.67;100.00;102380.34;5014707;28;20475;-52
2021/12/18 11:58:10;;;;;;;0.20;0.20;;;;;;;5.63;100.00;102382.03;5014194;28;20860;-52
2021/12/18 12:00:40;;;;;;;0.77;0.77;;;;;;;5.71;100.00;102384.84;5014317;28;20976;-52
2021/12/18 12:03:09;;;;;;;0.20;0.10;;;;;;;5.55;100.00;102384.44;5014004;28;20518;-52
2021/12/18 12:05:40;;;;;;;0.70;0.70;;;;;;;5.52;100.00;102378.22;5014368;28;20500;-52
2021/12/18 12:08:51;;;;;;;0.20;0.20;;;;;;;5.67;100.00;102380.34;5014130;28;20445;-52
2021/12/18 12:11:33;;;;;;;0.30;0.20;;;;;;;5.89;100.00;102377.38;5013546;28;20461;-52
2021/12/18 12:14:19;;;;;;;0.20;0.20;;;;;;;5.90;100.00;102374.81;5013758;28;20440;-52
2021/12/18 12:16:46;;;;;;;0.20;0.20;;;;;;;5.81;100.00;102371.03;5013805;28;20507;-52
2021/12/18 12:19:24;;;;;;;1.70;1.70;;;;;;;5.71;100.00;102374.28;5013193;28;20942;-52
2021/12/18 12:21:54;;;;;;;0.20;0.20;;;;;;;5.47;100.00;102374.53;5013844;28;20445;-52
2021/12/18 12:24:26;;;;;;;0.20;0.20;;;;;;;5.57;100.00;102363.38;5014001;28;20452;-52